ORD weather

Chicago O'Hare International Airport
Chicago, Illinois, United States

Public forecast

Using degrees Fahrenheit for public forecast. Weather courtesy of forecast.io.

METAR (pilot weather report)

Retrieved 2018/08/17 08:51 UTC (1 hour ago):

KORD 170851Z 01004KT 10SM BKN200 OVC250 21/19 A2992 RMK AO2 SLP126 60013 T02060189 55002

TAF (pilot weather forecast)

Retrieved 2018/08/17 06:42 UTC (3 hours ago):

TAF KORD 170539Z 1706/1812 30010KT 3SM TSRA SCT020 BKN040CB FM170615 VRB03KT 6SM -SHRA VCTS SCT020 BKN035CB FM170700 VRB03KT 6SM BR VCSH SCT020 BKN035 FM171400 02005KT P6SM VCSH SCT020 BKN035 FM171700 04009KT P6SM VCSH SCT040 BKN060 PROB30 1717/1721 1SM TSRA SCT025 BKN040CB FM172300 02006KT P6SM SCT040